createdAt,value
2022-11-23T00:00:07.598Z,98185.06
2022-11-23T00:02:34.490Z,98190.19
2022-11-23T00:05:01.403Z,98185.91
2022-11-23T00:07:28.458Z,98182.41
2022-11-23T00:09:55.250Z,98176.13
2022-11-23T00:12:22.187Z,98172.66
2022-11-23T00:14:49.142Z,98169.38
2022-11-23T00:17:15.954Z,98165.72
2022-11-23T00:19:42.876Z,98178.78
2022-11-23T00:22:09.647Z,98178.94
2022-11-23T00:24:36.470Z,98174.28
2022-11-23T00:27:03.442Z,98166.97
2022-11-23T00:32:10.890Z,98172.28
2022-11-23T00:34:37.784Z,98157.81
2022-11-23T00:37:04.603Z,98162.50
2022-11-23T00:39:31.768Z,98158.41
2022-11-23T00:41:58.711Z,98157.38
2022-11-23T00:44:25.512Z,98167.78
2022-11-23T00:46:52.353Z,98167.97
2022-11-23T00:49:19.131Z,98164.72
2022-11-23T00:51:45.999Z,98169.16
2022-11-23T00:54:13.603Z,98177.31
2022-11-23T00:56:40.359Z,98172.22
2022-11-23T00:59:07.325Z,98168.94
2022-11-23T01:01:35.033Z,98170.75
2022-11-23T01:04:02.203Z,98171.16
2022-11-23T01:06:33.499Z,98165.22
2022-11-23T01:09:02.440Z,98169.31
2022-11-23T01:11:30.009Z,98167.06
2022-11-23T01:13:56.897Z,98157.28
2022-11-23T01:16:34.395Z,98158.72
2022-11-23T01:19:02.156Z,98168.50
2022-11-23T01:21:29.423Z,98161.19
2022-11-23T01:23:57.984Z,98162.81
2022-11-23T01:26:25.068Z,98159.53
2022-11-23T01:28:51.915Z,98161.19
2022-11-23T01:31:22.511Z,98157.53
2022-11-23T01:33:53.173Z,98162.63
2022-11-23T01:36:20.831Z,98167.72
2022-11-23T01:38:47.964Z,98164.09
2022-11-23T01:41:19.115Z,98161.81
2022-11-23T01:43:46.640Z,98164.47
2022-11-23T01:46:13.475Z,98166.91
2022-11-23T01:48:40.475Z,98156.13
2022-11-23T01:51:09.472Z,98163.44
2022-11-23T01:53:36.340Z,98163.44
2022-11-23T01:56:04.342Z,98170.38
2022-11-23T01:58:32.609Z,98158.16
2022-11-23T02:00:59.448Z,98171.41
2022-11-23T02:03:27.363Z,98178.16
2022-11-23T02:05:59.356Z,98174.69
2022-11-23T02:08:26.310Z,98178.16
2022-11-23T02:10:56.071Z,98174.84
2022-11-23T02:13:32.842Z,98184.81
2022-11-23T02:15:59.809Z,98183.63
2022-11-23T02:18:27.400Z,98181.22
2022-11-23T02:20:54.447Z,98179.19
2022-11-23T02:23:30.603Z,98181.47
2022-11-23T02:26:02.333Z,98177.81
2022-11-23T02:28:32.109Z,98178.00
2022-11-23T02:30:59.323Z,98173.91
2022-11-23T02:33:26.363Z,98184.50
2022-11-23T02:35:54.199Z,98185.53
2022-11-23T02:38:22.997Z,98178.16
2022-11-23T02:40:49.866Z,98177.31
2022-11-23T02:43:16.761Z,98173.03
2022-11-23T02:45:51.559Z,98172.03
2022-11-23T02:48:19.173Z,98165.69
2022-11-23T02:50:46.078Z,98178.72
2022-11-23T02:53:13.003Z,98173.03
2022-11-23T02:55:39.790Z,98180.59
2022-11-23T02:58:07.472Z,98175.91
2022-11-23T03:00:34.628Z,98187.78
2022-11-23T03:03:03.486Z,98186.75
2022-11-23T03:05:30.597Z,98179.03
2022-11-23T03:07:57.468Z,98186.97
2022-11-23T03:10:24.510Z,98188.16
2022-11-23T03:12:54.027Z,98190.19
2022-11-23T03:15:21.402Z,98187.94
2022-11-23T03:17:48.433Z,98183.63
2022-11-23T03:20:16.620Z,98170.75
2022-11-23T03:22:46.675Z,98177.91
2022-11-23T03:25:15.295Z,98182.63
2022-11-23T03:27:48.235Z,98179.16
2022-11-23T03:30:15.617Z,98181.34
2022-11-23T03:32:43.376Z,98174.22
2022-11-23T03:35:10.129Z,98180.97
2022-11-23T03:37:48.702Z,98179.16
2022-11-23T03:40:15.736Z,98185.28
2022-11-23T03:43:07.898Z,98187.72
2022-11-23T03:45:34.834Z,98182.00
2022-11-23T03:48:01.921Z,98194.59
2022-11-23T03:50:30.919Z,98187.69
2022-11-23T03:52:58.104Z,98186.28
2022-11-23T03:55:24.987Z,98183.06
2022-11-23T03:57:54.553Z,98188.16
2022-11-23T04:00:21.719Z,98191.81
2022-11-23T04:02:48.979Z,98188.97
2022-11-23T04:05:48.449Z,98182.88
2022-11-23T04:08:35.221Z,98178.38
2022-11-23T04:11:07.087Z,98177.19
2022-11-23T04:13:38.748Z,98178.38
2022-11-23T04:16:07.401Z,98175.56
2022-11-23T04:18:36.833Z,98182.06
2022-11-23T04:21:04.580Z,98183.28
2022-11-23T04:23:31.479Z,98193.72
2022-11-23T04:25:58.741Z,98189.06
2022-11-23T04:28:25.529Z,98199.66
2022-11-23T04:30:53.509Z,98202.91
2022-11-23T04:33:20.435Z,98210.66
2022-11-23T04:35:47.330Z,98206.41
2022-11-23T04:38:14.930Z,98206.56
2022-11-23T04:40:42.608Z,98205.94
2022-11-23T04:43:09.739Z,98206.41
2022-11-23T04:45:39.727Z,98201.91
2022-11-23T04:48:11.592Z,98199.25
2022-11-23T04:50:40.526Z,98204.34
2022-11-23T04:53:09.230Z,98205.38
2022-11-23T04:58:34.721Z,98196.59
2022-11-23T05:01:02.709Z,98191.50
2022-11-23T05:03:31.635Z,98204.50
2022-11-23T05:06:25.975Z,98203.50
2022-11-23T05:08:54.147Z,98202.28
2022-11-23T05:11:41.636Z,98207.38
2022-11-23T05:14:10.542Z,98204.56
2022-11-23T05:16:38.874Z,98202.53
2022-11-23T05:19:05.843Z,98206.25
2022-11-23T05:21:33.312Z,98209.06
2022-11-23T05:24:00.473Z,98204.97
2022-11-23T05:26:29.291Z,98214.13
2022-11-23T05:28:56.223Z,98217.97
2022-11-23T05:31:23.046Z,98215.53
2022-11-23T05:33:51.511Z,98207.22
2022-11-23T05:36:27.487Z,98213.94
2022-11-23T05:38:54.812Z,98212.75
2022-11-23T05:41:28.702Z,98214.38
2022-11-23T05:43:59.426Z,98214.13
2022-11-23T05:46:28.489Z,98217.16
2022-11-23T05:48:55.578Z,98226.31
2022-11-23T05:51:23.815Z,98228.78
2022-11-23T05:53:50.899Z,98218.56
2022-11-23T05:56:24.567Z,98217.94
2022-11-23T05:59:15.681Z,98221.19
2022-11-23T06:01:46.837Z,98226.16
2022-11-23T06:04:22.068Z,98225.75
2022-11-23T06:06:49.083Z,98218.44
2022-11-23T06:09:19.059Z,98224.09
2022-11-23T06:11:52.819Z,98214.69
2022-11-23T06:14:20.864Z,98215.91
2022-11-23T06:16:52.211Z,98218.13
2022-11-23T06:19:39.565Z,98208.16
2022-11-23T06:22:07.342Z,98216.94
2022-11-23T06:24:44.175Z,98217.56
2022-11-23T06:27:38.840Z,98212.25
2022-11-23T06:30:14.980Z,98213.72
2022-11-23T06:32:42.365Z,98217.41
2022-11-23T06:35:10.272Z,98218.44
2022-11-23T06:37:40.757Z,98224.16
2022-11-23T06:40:08.186Z,98220.72
2022-11-23T06:42:39.862Z,98220.94
2022-11-23T06:45:14.167Z,98225.63
2022-11-23T06:47:41.563Z,98227.69
2022-11-23T06:50:09.697Z,98231.16
2022-11-23T06:52:37.942Z,98225.47
2022-11-23T06:55:05.585Z,98226.09
2022-11-23T06:57:32.606Z,98224.47
2022-11-23T07:00:02.737Z,98234.06
2022-11-23T07:02:34.743Z,98223.25
2022-11-23T07:05:02.107Z,98231.63
2022-11-23T07:07:31.505Z,98236.19
2022-11-23T07:10:07.660Z,98242.69
2022-11-23T07:12:46.942Z,98248.25
2022-11-23T07:15:16.761Z,98247.22
2022-11-23T07:17:45.316Z,98241.09
2022-11-23T07:20:13.054Z,98249.69
2022-11-23T07:22:40.251Z,98245.63
2022-11-23T07:25:12.997Z,98251.16
2022-11-23T07:27:43.569Z,98252.59
2022-11-23T07:30:14.856Z,98244.66
2022-11-23T07:32:45.615Z,98245.47
2022-11-23T07:35:13.437Z,98233.03
2022-11-23T07:37:43.616Z,98238.59
2022-11-23T07:40:10.816Z,98237.38
2022-11-23T07:42:44.940Z,98238.78
2022-11-23T07:45:15.238Z,98243.66
2022-11-23T07:47:45.503Z,98238.53
2022-11-23T07:50:13.530Z,98237.91
2022-11-23T07:52:41.440Z,98249.53
2022-11-23T07:55:08.631Z,98239.69
2022-11-23T07:57:35.671Z,98238.44
2022-11-23T08:00:10.277Z,98242.94
2022-11-23T08:02:52.787Z,98246.00
2022-11-23T08:05:26.609Z,98243.19
2022-11-23T08:07:58.540Z,98248.03
2022-11-23T08:10:26.806Z,98247.28
2022-11-23T08:12:56.550Z,98256.22
2022-11-23T08:15:24.198Z,98250.34
2022-11-23T08:17:55.100Z,98260.78
2022-11-23T08:20:22.134Z,98254.06
2022-11-23T08:22:49.306Z,98255.88
2022-11-23T08:25:16.852Z,98255.25
2022-11-23T08:27:43.971Z,98251.97
2022-11-23T08:30:10.918Z,98255.88
2022-11-23T08:32:37.687Z,98250.19
2022-11-23T08:35:05.069Z,98255.50
2022-11-23T08:37:31.897Z,98250.78
2022-11-23T08:39:58.664Z,98255.50
2022-11-23T08:42:25.650Z,98255.25
2022-11-23T08:44:52.583Z,98258.31
2022-11-23T08:47:22.091Z,98264.81
2022-11-23T08:49:49.785Z,98265.84
2022-11-23T08:52:16.962Z,98272.75
2022-11-23T08:54:43.876Z,98270.28
2022-11-23T08:57:10.959Z,98274.53
2022-11-23T08:59:37.834Z,98263.13
2022-11-23T09:02:05.163Z,98272.47
2022-11-23T09:04:32.462Z,98270.03
2022-11-23T09:06:59.443Z,98275.31
2022-11-23T09:09:26.543Z,98272.66
2022-11-23T09:11:54.112Z,98273.66
2022-11-23T09:14:22.168Z,98270.41
2022-11-23T09:16:49.416Z,98266.91
2022-11-23T09:19:16.410Z,98269.38
2022-11-23T09:21:43.407Z,98275.50
2022-11-23T09:24:11.721Z,98276.94
2022-11-23T09:26:39.219Z,98273.66
2022-11-23T09:29:06.553Z,98279.59
2022-11-23T09:31:33.533Z,98282.72
2022-11-23T09:34:00.527Z,98279.03
2022-11-23T09:36:27.356Z,98281.06
2022-11-23T09:38:57.022Z,98273.50
2022-11-23T09:41:43.264Z,98272.91
2022-11-23T09:44:29.173Z,98273.78
2022-11-23T09:47:05.295Z,98277.66
2022-11-23T09:49:44.263Z,98273.16
2022-11-23T09:52:18.536Z,98268.09
2022-11-23T09:54:45.759Z,98263.59
2022-11-23T09:57:13.204Z,98276.94
2022-11-23T09:59:41.350Z,98264.66
2022-11-23T10:04:59.353Z,98262.63
2022-11-23T10:07:26.332Z,98254.91
2022-11-23T10:09:53.140Z,98265.94
2022-11-23T10:12:37.225Z,98261.25
2022-11-23T10:15:18.744Z,98260.38
2022-11-23T10:17:57.817Z,98266.50
2022-11-23T10:20:35.892Z,98262.63
2022-11-23T10:23:03.953Z,98270.19
2022-11-23T10:25:39.505Z,98268.13
2022-11-23T10:28:12.303Z,98273.50
2022-11-23T10:30:39.493Z,98274.75
2022-11-23T10:33:18.514Z,98275.75
2022-11-23T10:35:45.384Z,98282.88
2022-11-23T10:38:18.372Z,98276.56
2022-11-23T10:40:54.814Z,98282.88
2022-11-23T10:43:23.188Z,98281.06
2022-11-23T10:45:49.934Z,98272.47
2022-11-23T10:48:35.621Z,98281.44
2022-11-23T10:51:16.036Z,98285.72
2022-11-23T10:53:42.927Z,98285.72
2022-11-23T10:56:12.212Z,98280.22
2022-11-23T10:58:44.921Z,98282.06
2022-11-23T11:01:14.803Z,98288.13
2022-11-23T11:03:41.848Z,98289.78
2022-11-23T11:06:10.273Z,98287.91
2022-11-23T11:08:49.016Z,98297.91
2022-11-23T11:11:23.843Z,98298.25
2022-11-23T11:13:50.879Z,98303.38
2022-11-23T11:16:33.952Z,98301.53
2022-11-23T11:19:01.894Z,98302.34
2022-11-23T11:21:31.741Z,98305.66
2022-11-23T11:24:02.856Z,98312.41
2022-11-23T11:26:36.555Z,98320.34
2022-11-23T11:29:06.812Z,98320.91
2022-11-23T11:32:11.841Z,98323.00
2022-11-23T11:34:57.025Z,98321.03
2022-11-23T11:37:37.122Z,98332.66
2022-11-23T11:40:19.229Z,98339.38
2022-11-23T11:42:51.582Z,98333.03
2022-11-23T11:45:28.585Z,98336.91
2022-11-23T11:48:03.493Z,98329.97
2022-11-23T11:50:32.041Z,98341.56
2022-11-23T11:53:10.639Z,98344.03
2022-11-23T11:55:40.426Z,98344.47
2022-11-23T11:58:10.912Z,98348.53
2022-11-23T12:00:42.212Z,98359.75
2022-11-23T12:03:20.691Z,98354.25
2022-11-23T12:05:49.164Z,98355.28
2022-11-23T12:08:33.750Z,98352.63
2022-11-23T12:11:02.272Z,98363.03
2022-11-23T12:13:30.040Z,98366.06
2022-11-23T12:16:15.480Z,98368.72
2022-11-23T12:18:51.727Z,98361.16
2022-11-23T12:21:37.629Z,98361.91
2022-11-23T12:24:14.261Z,98364.56
2022-11-23T12:26:46.733Z,98362.53
2022-11-23T12:29:24.877Z,98370.50
2022-11-23T12:31:54.493Z,98367.66
2022-11-23T12:34:24.510Z,98378.69
2022-11-23T12:36:56.306Z,98378.31
2022-11-23T12:39:35.414Z,98387.47
2022-11-23T12:42:05.785Z,98394.22
2022-11-23T12:44:50.064Z,98393.22
2022-11-23T12:47:35.981Z,98400.00
2022-11-23T12:50:02.999Z,98404.28
2022-11-23T12:52:48.674Z,98404.84
2022-11-23T12:55:19.649Z,98399.09
2022-11-23T12:57:50.629Z,98402.78
2022-11-23T13:00:23.987Z,98405.59
2022-11-23T13:02:50.781Z,98401.69
2022-11-23T13:05:20.659Z,98411.28
2022-11-23T13:07:53.685Z,98411.69
2022-11-23T13:10:26.403Z,98415.53
2022-11-23T13:12:56.509Z,98413.06
2022-11-23T13:15:35.660Z,98410.22
2022-11-23T13:18:21.157Z,98414.50
2022-11-23T13:20:57.098Z,98408.78
2022-11-23T13:23:23.994Z,98415.72
2022-11-23T13:26:10.141Z,98419.16
2022-11-23T13:28:37.502Z,98423.84
2022-11-23T13:31:15.816Z,98421.41
2022-11-23T13:33:56.555Z,98423.50
2022-11-23T13:39:45.586Z,98422.03
2022-11-23T13:42:16.837Z,98432.44
2022-11-23T13:44:43.807Z,98435.72
2022-11-23T13:47:15.397Z,98425.94
2022-11-23T13:49:45.869Z,98435.53
2022-11-23T13:52:24.219Z,98439.81
2022-11-23T13:54:53.790Z,98439.00
2022-11-23T13:57:20.665Z,98439.41
2022-11-23T13:59:47.853Z,98447.34
2022-11-23T14:02:17.906Z,98465.91
2022-11-23T14:04:45.691Z,98466.25
2022-11-23T14:07:12.640Z,98475.41
2022-11-23T14:09:43.196Z,98473.16
2022-11-23T14:12:18.929Z,98469.84
2022-11-23T14:14:50.300Z,98469.41
2022-11-23T14:17:39.837Z,98467.59
2022-11-23T14:20:27.943Z,98469.78
2022-11-23T14:23:16.420Z,98470.59
2022-11-23T14:25:59.737Z,98468.34
2022-11-23T14:28:45.340Z,98476.63
2022-11-23T14:31:33.311Z,98476.28
2022-11-23T14:34:19.071Z,98473.44
2022-11-23T14:36:52.921Z,98482.78
2022-11-23T14:39:26.103Z,98479.88
2022-11-23T14:41:54.143Z,98482.88
2022-11-23T14:44:23.851Z,98480.22
2022-11-23T14:47:00.999Z,98484.25
2022-11-23T14:49:28.507Z,98487.47
2022-11-23T14:51:55.757Z,98491.13
2022-11-23T14:54:22.647Z,98494.41
2022-11-23T14:56:55.700Z,98491.75
2022-11-23T14:59:36.727Z,98495.03
2022-11-23T15:02:06.117Z,98493.59
2022-11-23T15:04:36.446Z,98498.06
2022-11-23T15:07:15.095Z,98499.09
2022-11-23T15:09:48.641Z,98508.22
2022-11-23T15:12:23.112Z,98513.31
2022-11-23T15:14:51.423Z,98511.13
2022-11-23T15:17:19.139Z,98514.97
2022-11-23T15:19:58.892Z,98518.25
2022-11-23T15:22:27.232Z,98517.63
2022-11-23T15:24:54.094Z,98521.91
2022-11-23T15:27:30.497Z,98521.53
2022-11-23T15:30:22.981Z,98517.91
2022-11-23T15:32:56.547Z,98525.28
2022-11-23T15:35:23.811Z,98536.06
2022-11-23T15:37:50.602Z,98541.19
2022-11-23T15:40:18.833Z,98535.06
2022-11-23T15:42:47.026Z,98543.00
2022-11-23T15:45:52.915Z,98549.31
2022-11-23T15:48:20.384Z,98548.84
2022-11-23T15:50:49.770Z,98550.16
2022-11-23T15:53:19.592Z,98556.91
2022-11-23T15:55:47.615Z,98552.63
2022-11-23T15:58:16.381Z,98553.81
2022-11-23T16:00:47.551Z,98564.97
2022-11-23T16:03:23.652Z,98569.44
2022-11-23T16:06:09.047Z,98568.78
2022-11-23T16:08:35.931Z,98572.63
2022-11-23T16:11:02.932Z,98572.81
2022-11-23T16:13:38.319Z,98577.13
2022-11-23T16:16:16.767Z,98572.63
2022-11-23T16:18:46.408Z,98578.47
2022-11-23T16:21:17.378Z,98576.66
2022-11-23T16:23:46.123Z,98579.66
2022-11-23T16:26:13.213Z,98586.97
2022-11-23T16:28:41.194Z,98583.66
2022-11-23T16:31:29.917Z,98584.31
2022-11-23T16:33:56.785Z,98593.94
2022-11-23T16:36:26.985Z,98589.63
2022-11-23T16:38:54.398Z,98590.44
2022-11-23T16:41:21.196Z,98587.97
2022-11-23T16:43:52.620Z,98588.97
2022-11-23T16:46:19.858Z,98595.28
2022-11-23T16:48:46.824Z,98596.63
2022-11-23T16:51:14.770Z,98607.16
2022-11-23T16:54:11.905Z,98610.63
2022-11-23T16:56:29.718Z,98620.19
2022-11-23T16:58:57.149Z,98621.22
2022-11-23T17:01:25.430Z,98619.22
2022-11-23T17:03:52.627Z,98623.50
2022-11-23T17:06:23.791Z,98616.72
2022-11-23T17:08:56.584Z,98619.38
2022-11-23T17:11:28.511Z,98624.84
2022-11-23T17:13:56.154Z,98626.50
2022-11-23T17:16:24.317Z,98634.09
2022-11-23T17:18:51.761Z,98629.81
2022-11-23T17:21:18.621Z,98628.50
2022-11-23T17:23:46.019Z,98631.16
2022-11-23T17:26:34.579Z,98631.53
2022-11-23T17:29:03.601Z,98633.34
2022-11-23T17:31:30.774Z,98648.59
2022-11-23T17:33:57.847Z,98645.75
2022-11-23T17:36:26.609Z,98653.69
2022-11-23T17:38:54.727Z,98650.06
2022-11-23T17:41:29.685Z,98652.06
2022-11-23T17:44:06.640Z,98661.31
2022-11-23T17:46:34.170Z,98668.78
2022-11-23T17:49:02.653Z,98665.66
2022-11-23T17:51:30.678Z,98673.25
2022-11-23T17:53:58.391Z,98672.25
2022-11-23T17:56:28.439Z,98676.56
2022-11-23T17:58:58.844Z,98673.09
2022-11-23T18:01:33.382Z,98682.22
2022-11-23T18:04:07.519Z,98676.06
2022-11-23T18:06:37.401Z,98676.91
2022-11-23T18:09:25.362Z,98679.72
2022-11-23T18:11:52.708Z,98680.75
2022-11-23T18:17:08.862Z,98687.75
2022-11-23T18:19:40.023Z,98685.63
2022-11-23T18:22:10.594Z,98682.31
2022-11-23T18:24:37.935Z,98683.97
2022-11-23T18:27:04.815Z,98682.50
2022-11-23T18:29:32.276Z,98685.69
2022-11-23T18:31:59.437Z,98680.09
2022-11-23T18:34:26.587Z,98680.44
2022-11-23T18:36:54.680Z,98687.22
2022-11-23T18:39:21.699Z,98683.09
2022-11-23T18:41:48.743Z,98684.44
2022-11-23T18:44:15.640Z,98686.44
2022-11-23T18:46:45.033Z,98696.19
2022-11-23T18:49:12.417Z,98702.00
2022-11-23T18:51:39.538Z,98698.06
2022-11-23T18:54:06.592Z,98694.59
2022-11-23T18:56:33.515Z,98695.97
2022-11-23T18:59:00.577Z,98702.22
2022-11-23T19:01:30.462Z,98705.06
2022-11-23T19:03:57.550Z,98704.06
2022-11-23T19:06:24.712Z,98712.66
2022-11-23T19:08:57.613Z,98717.75
2022-11-23T19:11:25.494Z,98719.44
2022-11-23T19:13:53.392Z,98724.06
2022-11-23T19:16:23.321Z,98725.06
2022-11-23T19:18:57.218Z,98726.41
2022-11-23T19:21:28.081Z,98733.38
2022-11-23T19:23:55.820Z,98741.00
2022-11-23T19:26:22.919Z,98745.13
2022-11-23T19:31:32.384Z,98739.41
2022-11-23T19:34:01.023Z,98741.91
2022-11-23T19:36:29.052Z,98746.19
2022-11-23T19:38:56.711Z,98743.75
2022-11-23T19:41:29.637Z,98758.13
2022-11-23T19:44:00.187Z,98763.41
2022-11-23T19:46:27.673Z,98758.59
2022-11-23T19:48:54.753Z,98762.06
2022-11-23T19:51:23.235Z,98768.41
2022-11-23T19:53:50.227Z,98773.84
2022-11-23T19:56:19.366Z,98767.06
2022-11-23T19:58:47.892Z,98759.47
2022-11-23T20:01:18.413Z,98765.28
2022-11-23T20:03:49.997Z,98770.09
2022-11-23T20:06:25.951Z,98777.16
2022-11-23T20:09:03.173Z,98773.91
2022-11-23T20:11:30.692Z,98767.44
2022-11-23T20:14:00.335Z,98767.44
2022-11-23T20:16:27.967Z,98768.75
2022-11-23T20:18:57.172Z,98774.84
2022-11-23T20:21:24.468Z,98780.47
2022-11-23T20:24:04.899Z,98777.84
2022-11-23T20:26:33.219Z,98782.31
2022-11-23T20:28:59.982Z,98779.50
2022-11-23T20:31:27.708Z,98795.69
2022-11-23T20:33:55.049Z,98802.81
2022-11-23T20:36:23.699Z,98806.47
2022-11-23T20:38:51.235Z,98809.94
2022-11-23T20:41:20.491Z,98814.72
2022-11-23T20:43:48.306Z,98814.38
2022-11-23T20:46:45.682Z,98825.28
2022-11-23T20:49:07.380Z,98827.59
2022-11-23T20:51:37.059Z,98831.91
2022-11-23T20:54:03.922Z,98838.16
2022-11-23T20:56:41.176Z,98841.97
2022-11-23T20:59:08.192Z,98839.84
2022-11-23T21:01:35.486Z,98839.19
2022-11-23T21:04:02.417Z,98840.34
2022-11-23T21:06:35.814Z,98839.50
2022-11-23T21:09:05.541Z,98845.13
2022-11-23T21:11:54.302Z,98852.03
2022-11-23T21:14:24.700Z,98847.09
2022-11-23T21:16:56.202Z,98854.69
2022-11-23T21:19:29.908Z,98857.31
2022-11-23T21:21:57.266Z,98863.44
2022-11-23T21:24:24.421Z,98866.75
2022-11-23T21:26:54.677Z,98869.53
2022-11-23T21:29:21.452Z,98869.84
2022-11-23T21:31:48.910Z,98867.38
2022-11-23T21:34:17.726Z,98867.84
2022-11-23T21:36:44.657Z,98874.81
2022-11-23T21:39:11.871Z,98878.25
2022-11-23T21:41:51.053Z,98887.69
2022-11-23T21:44:18.200Z,98882.72
2022-11-23T21:46:45.280Z,98890.31
2022-11-23T21:49:13.081Z,98890.28
2022-11-23T21:51:42.683Z,98885.31
2022-11-23T21:54:16.252Z,98884.66
2022-11-23T21:56:46.618Z,98886.16
2022-11-23T21:59:13.576Z,98885.16
2022-11-23T22:01:40.617Z,98890.13
2022-11-23T22:04:11.336Z,98891.94
2022-11-23T22:06:39.655Z,98888.47
2022-11-23T22:09:07.407Z,98888.97
2022-11-23T22:11:37.088Z,98893.28
2022-11-23T22:14:08.161Z,98891.59
2022-11-23T22:19:17.083Z,98900.88
2022-11-23T22:21:49.948Z,98911.25
2022-11-23T22:24:18.387Z,98909.63
2022-11-23T22:26:45.612Z,98911.44
2022-11-23T22:29:12.798Z,98910.09
2022-11-23T22:31:40.087Z,98914.41
2022-11-23T22:34:08.775Z,98909.97
2022-11-23T22:36:35.774Z,98919.69
2022-11-23T22:39:03.788Z,98922.19
2022-11-23T22:41:33.485Z,98920.66
2022-11-23T22:44:05.982Z,98923.63
2022-11-23T22:46:32.937Z,98922.00
2022-11-23T22:49:00.043Z,98929.22
2022-11-23T22:51:27.899Z,98919.28
2022-11-23T22:53:55.211Z,98924.06
2022-11-23T22:56:22.543Z,98923.72
2022-11-23T22:58:49.780Z,98921.88
2022-11-23T23:01:17.560Z,98918.72
2022-11-23T23:03:44.846Z,98924.63
2022-11-23T23:06:15.871Z,98927.72
2022-11-23T23:08:42.727Z,98928.06
2022-11-23T23:11:09.855Z,98929.34
2022-11-23T23:13:37.147Z,98934.25
2022-11-23T23:16:07.687Z,98932.63
2022-11-23T23:18:34.576Z,98934.56
2022-11-23T23:21:05.876Z,98936.53
2022-11-23T23:23:33.508Z,98939.34
2022-11-23T23:26:00.420Z,98948.91
2022-11-23T23:28:27.199Z,98944.09
2022-11-23T23:30:58.991Z,98949.00
2022-11-23T23:33:25.899Z,98947.22
2022-11-23T23:35:52.732Z,98949.19
2022-11-23T23:38:22.329Z,98950.00
2022-11-23T23:40:49.491Z,98954.00
2022-11-23T23:43:16.432Z,98958.41
2022-11-23T23:45:43.274Z,98959.41
2022-11-23T23:48:10.216Z,98957.47
2022-11-23T23:50:37.215Z,98959.78
2022-11-23T23:53:05.022Z,98958.50
2022-11-23T23:55:31.990Z,98961.28
2022-11-23T23:58:01.835Z,98963.25
